Time;durP1;ratioP1;P1;durP2;ratioP2;P2;SDS_P1;SDS_P2;PMS_P1;PMS_P2;Temp;Humidity;BMP_temperature;BMP_pressure;BME280_temperature;BME280_humidity;BME280_pressure;Samples;Min_cycle;Max_cycle;Signal;HPM_P1;HPM_P2
2023/09/30 00:00:39;;;;;;;;;;;;;;;;;;6323875;28;20271;-83
2023/09/30 00:03:39;;;;;;;;;;;;;;;;;;6323784;28;19916;-83
2023/09/30 00:06:39;;;;;;;;;;;;;;;;;;6325035;28;20328;-83
2023/09/30 00:09:40;;;;;;;;;;;;;;;;;;6325601;28;19909;-83
2023/09/30 00:12:40;;;;;;;;;;;;;;;;;;6323568;28;19920;-84
2023/09/30 00:15:40;;;;;;;;;;;;;;;;;;6325300;28;20354;-83
2023/09/30 00:18:41;;;;;;;;;;;;;;;;;;6324689;28;19908;-83
2023/09/30 00:21:41;;;;;;;;;;;;;;;;;;6324018;28;20281;-84
2023/09/30 00:24:41;;;;;;;;;;;;;;;;;;6325410;28;20429;-83
2023/09/30 00:27:41;;;;;;;;;;;;;;;;;;6323182;28;19915;-84
2023/09/30 00:30:41;;;;;;;;;;;;;;;;;;6323090;28;19909;-83
2023/09/30 00:33:41;;;;;;;;;;;;;;;;;;6324366;28;20339;-83
2023/09/30 00:36:41;;;;;;;;;;;;;;;;;;6323034;28;20420;-83
2023/09/30 00:39:42;;;;;;;;;;;;;;;;;;6324311;28;19951;-84
2023/09/30 00:42:46;;;;;;;;;;;;;;;;;;6324274;28;20272;-84
2023/09/30 00:45:46;;;;;;;;;;;;;;;;;;6323238;28;19916;-84
2023/09/30 00:48:46;;;;;;;;;;;;;;;;;;6323046;28;19999;-83
2023/09/30 00:51:47;;;;;;;;;;;;;;;;;;6324358;28;20374;-84
2023/09/30 00:54:47;;;;;;;;;;;;;;;;;;6322518;28;19912;-82
2023/09/30 00:57:47;;;;;;;;;;;;;;;;;;6322703;28;19916;-83
2023/09/30 01:00:48;;;;;;;;;;;;;;;;;;6323207;28;20019;-83
2023/09/30 01:03:49;;;;;;;;;;;;;;;;;;6324518;28;19908;-84
2023/09/30 01:06:50;;;;;;;;;;;;;;;;;;6322615;28;20388;-84
2023/09/30 01:09:50;;;;;;;;;;;;;;;;;;6323879;28;19958;-83
2023/09/30 01:12:50;;;;;;;;;;;;;;;;;;6323627;28;19908;-83
2023/09/30 01:15:50;;;;;;;;;;;;;;;;;;6322074;28;20031;-83
2023/09/30 01:18:52;;;;;;;;;;;;;;;;;;6322411;28;20354;-83
2023/09/30 01:21:54;;;;;;;;;;;;;;;;;;6323338;28;19961;-83
2023/09/30 01:24:54;;;;;;;;;;;;;;;;;;6321901;28;19908;-82
2023/09/30 01:27:59;;;;;;;;;;;;;;;;;;6323112;28;19915;-83
2023/09/30 01:30:59;;;;;;;;;;;;;;;;;;6323390;28;19954;-83
2023/09/30 01:33:59;;;;;;;;;;;;;;;;;;6323025;28;19913;-83
2023/09/30 01:37:00;;;;;;;;;;;;;;;;;;6321970;28;19908;-83
2023/09/30 01:40:00;;;;;;;;;;;;;;;;;;6321673;28;19908;-84
2023/09/30 01:43:01;;;;;;;;;;;;;;;;;;6322816;28;19908;-84
2023/09/30 01:46:01;;;;;;;;;;;;;;;;;;6323494;28;19908;-84
2023/09/30 01:49:01;;;;;;;;;;;;;;;;;;6321917;28;19939;-83
2023/09/30 01:52:01;;;;;;;;;;;;;;;;;;6321883;28;19908;-83
2023/09/30 01:55:03;;;;;;;;;;;;;;;;;;6321658;28;20366;-84
2023/09/30 01:58:03;;;;;;;;;;;;;;;;;;6297655;28;19946;-84
2023/09/30 02:01:03;;;;;;;;;;;;;;;;;;6297517;28;19908;-85
2023/09/30 02:04:05;;;;;;;;;;;;;;;;;;6297585;28;20005;-84
2023/09/30 02:07:05;;;;;;;;;;;;;;;;;;6297834;28;19908;-89
2023/09/30 02:10:05;;;;;;;;;;;;;;;;;;6297597;28;19909;-89
2023/09/30 02:13:05;;;;;;;;;;;;;;;;;;6297465;28;19909;-89
2023/09/30 02:16:06;;;;;;;;;;;;;;;;;;6297612;28;19909;-89
2023/09/30 02:19:06;;;;;;;;;;;;;;;;;;6296608;28;20412;-89
2023/09/30 02:22:09;;;;;;;;;;;;;;;;;;6297517;28;19909;-89
2023/09/30 02:25:09;;;;;;;;;;;;;;;;;;6298453;28;19909;-89
2023/09/30 02:28:10;;;;;;;;;;;;;;;;;;6297286;28;20389;-89
2023/09/30 02:31:10;;;;;;;;;;;;;;;;;;6296411;28;19983;-89
2023/09/30 02:34:10;;;;;;;;;;;;;;;;;;6297268;28;19912;-88
2023/09/30 02:37:10;;;;;;;;;;;;;;;;;;6299335;28;19954;-88
2023/09/30 02:40:10;;;;;;;;;;;;;;;;;;6300794;28;19916;-88
2023/09/30 02:43:10;;;;;;;;;;;;;;;;;;6300930;28;19951;-88
2023/09/30 02:46:12;;;;;;;;;;;;;;;;;;6302552;28;19915;-88
2023/09/30 02:49:13;;;;;;;;;;;;;;;;;;6325515;28;19908;-88
2023/09/30 02:52:13;;;;;;;;;;;;;;;;;;6328416;28;19913;-87
2023/09/30 02:55:13;;;;;;;;;;;;;;;;;;6328511;28;19990;-87
2023/09/30 02:58:14;;;;;;;;;;;;;;;;;;6351719;28;19915;-88
2023/09/30 03:01:16;;;;;;;;;;;;;;;;;;6351041;28;19938;-88
2023/09/30 03:04:19;;;;;;;;;;;;;;;;;;6351507;28;19914;-88
2023/09/30 03:07:19;;;;;;;;;;;;;;;;;;6351713;28;19923;-87
2023/09/30 03:10:26;;;;;;;;;;;;;;;;;;6351266;28;19909;-89
2023/09/30 03:13:26;;;;;;;;;;;;;;;;;;6350908;28;19920;-90
2023/09/30 03:16:27;;;;;;;;;;;;;;;;;;6345978;28;19994;-83
2023/09/30 03:19:27;;;;;;;;;;;;;;;;;;6325182;28;19915;-83
2023/09/30 03:22:27;;;;;;;;;;;;;;;;;;6325160;28;20342;-83
2023/09/30 03:25:27;;;;;;;;;;;;;;;;;;6326001;28;19912;-83
2023/09/30 03:28:28;;;;;;;;;;;;;;;;;;6325936;28;19908;-84
2023/09/30 03:31:29;;;;;;;;;;;;;;;;;;6351766;28;19911;-83
2023/09/30 03:34:30;;;;;;;;;;;;;;;;;;6351041;28;19916;-83
2023/09/30 03:37:31;;;;;;;;;;;;;;;;;;6351380;28;19915;-83
2023/09/30 03:40:33;;;;;;;;;;;;;;;;;;6333020;28;19919;-83
2023/09/30 03:43:35;;;;;;;;;;;;;;;;;;6333129;28;19911;-83
2023/09/30 03:46:35;;;;;;;;;;;;;;;;;;6332366;28;19952;-84
2023/09/30 03:49:38;;;;;;;;;;;;;;;;;;6352312;28;19912;-84
2023/09/30 03:52:38;;;;;;;;;;;;;;;;;;6350912;28;19908;-84
2023/09/30 03:55:39;;;;;;;;;;;;;;;;;;6332820;28;19965;-84
2023/09/30 03:58:39;;;;;;;;;;;;;;;;;;6351617;28;19969;-84
2023/09/30 04:01:40;;;;;;;;;;;;;;;;;;6350741;28;19914;-84
2023/09/30 04:04:40;;;;;;;;;;;;;;;;;;6332331;28;20012;-84
2023/09/30 04:07:41;;;;;;;;;;;;;;;;;;6332476;28;19951;-84
2023/09/30 04:10:43;;;;;;;;;;;;;;;;;;6350728;28;19911;-84
2023/09/30 04:13:43;;;;;;;;;;;;;;;;;;6332137;28;20361;-84
2023/09/30 04:16:44;;;;;;;;;;;;;;;;;;6350569;28;19918;-83
2023/09/30 04:19:45;;;;;;;;;;;;;;;;;;6350076;28;19908;-83
2023/09/30 04:22:48;;;;;;;;;;;;;;;;;;6350164;28;20044;-83
2023/09/30 04:25:49;;;;;;;;;;;;;;;;;;6349943;28;19908;-84
2023/09/30 04:28:49;;;;;;;;;;;;;;;;;;6331858;28;19908;-84
2023/09/30 04:31:49;;;;;;;;;;;;;;;;;;6349869;28;19915;-84
2023/09/30 04:34:51;;;;;;;;;;;;;;;;;;6349546;28;20018;-84
2023/09/30 04:37:51;;;;;;;;;;;;;;;;;;6349506;28;19908;-85
2023/09/30 04:40:51;;;;;;;;;;;;;;;;;;6331558;28;19908;-84
2023/09/30 04:43:52;;;;;;;;;;;;;;;;;;6331563;28;19952;-85
2023/09/30 04:46:52;;;;;;;;;;;;;;;;;;6349118;28;20342;-84
2023/09/30 04:49:52;;;;;;;;;;;;;;;;;;6348965;28;19987;-85
2023/09/30 04:52:53;;;;;;;;;;;;;;;;;;6331402;28;20024;-85
2023/09/30 04:55:53;;;;;;;;;;;;;;;;;;6348771;28;19934;-84
2023/09/30 04:58:53;;;;;;;;;;;;;;;;;;6330268;28;19974;-84
2023/09/30 05:01:54;;;;;;;;;;;;;;;;;;6331062;28;19907;-83
2023/09/30 05:04:54;;;;;;;;;;;;;;;;;;6349823;28;19918;-84
2023/09/30 05:07:54;;;;;;;;;;;;;;;;;;6330704;28;20289;-84
2023/09/30 05:10:55;;;;;;;;;;;;;;;;;;6349280;28;20329;-84
2023/09/30 05:13:56;;;;;;;;;;;;;;;;;;6348825;28;19916;-85
2023/09/30 05:16:56;;;;;;;;;;;;;;;;;;6330706;28;19907;-85
2023/09/30 05:19:56;;;;;;;;;;;;;;;;;;6348866;28;19907;-84
2023/09/30 05:22:56;;;;;;;;;;;;;;;;;;6348677;28;19961;-84
2023/09/30 05:25:56;;;;;;;;;;;;;;;;;;6330575;28;19908;-84
2023/09/30 05:28:56;;;;;;;;;;;;;;;;;;6348726;28;19908;-84
2023/09/30 05:31:57;;;;;;;;;;;;;;;;;;6348977;28;19931;-84
2023/09/30 05:34:57;;;;;;;;;;;;;;;;;;6348350;28;20253;-85
2023/09/30 05:37:58;;;;;;;;;;;;;;;;;;6330391;28;19908;-83
2023/09/30 05:40:58;;;;;;;;;;;;;;;;;;6330143;28;19916;-85
2023/09/30 05:43:59;;;;;;;;;;;;;;;;;;6348372;28;20336;-85
2023/09/30 05:47:00;;;;;;;;;;;;;;;;;;6330442;28;19927;-84
2023/09/30 05:50:03;;;;;;;;;;;;;;;;;;6348211;28;19994;-84
2023/09/30 05:53:07;;;;;;;;;;;;;;;;;;6348528;28;20002;-84
2023/09/30 05:56:07;;;;;;;;;;;;;;;;;;6348052;28;19919;-84
2023/09/30 05:59:07;;;;;;;;;;;;;;;;;;6329920;28;19957;-83
2023/09/30 06:02:08;;;;;;;;;;;;;;;;;;6348076;28;19908;-83
2023/09/30 06:05:08;;;;;;;;;;;;;;;;;;6330076;28;19947;-84
2023/09/30 06:08:10;;;;;;;;;;;;;;;;;;6329911;28;19945;-84
2023/09/30 06:11:11;;;;;;;;;;;;;;;;;;6351273;28;19908;-83
2023/09/30 06:14:11;;;;;;;;;;;;;;;;;;6335127;28;20060;-84
2023/09/30 06:17:12;;;;;;;;;;;;;;;;;;6335085;28;19912;-84
2023/09/30 06:20:16;;;;;;;;;;;;;;;;;;6353340;28;19930;-85
2023/09/30 06:23:16;;;;;;;;;;;;;;;;;;6335168;28;19915;-85
2023/09/30 06:26:16;;;;;;;;;;;;;;;;;;6352727;28;19907;-85
2023/09/30 06:29:17;;;;;;;;;;;;;;;;;;6334492;28;19908;-84
2023/09/30 06:32:17;;;;;;;;;;;;;;;;;;6334775;28;20045;-85
2023/09/30 06:35:17;;;;;;;;;;;;;;;;;;6352526;28;20293;-84
2023/09/30 06:38:17;;;;;;;;;;;;;;;;;;6352599;28;19912;-84
2023/09/30 06:41:17;;;;;;;;;;;;;;;;;;6334088;28;19908;-84
2023/09/30 06:44:18;;;;;;;;;;;;;;;;;;6334384;28;20003;-85
2023/09/30 06:47:18;;;;;;;;;;;;;;;;;;6352646;28;19911;-84
2023/09/30 06:50:18;;;;;;;;;;;;;;;;;;6352431;28;19911;-84
2023/09/30 06:53:18;;;;;;;;;;;;;;;;;;6352127;28;19930;-84
2023/09/30 06:56:18;;;;;;;;;;;;;;;;;;6351972;28;19915;-83
2023/09/30 06:59:19;;;;;;;;;;;;;;;;;;6334236;28;19908;-83
2023/09/30 07:02:19;;;;;;;;;;;;;;;;;;6352088;28;20297;-83
2023/09/30 07:05:19;;;;;;;;;;;;;;;;;;6351973;28;20281;-81
2023/09/30 07:08:21;;;;;;;;;;;;;;;;;;6351951;28;19908;-80
2023/09/30 07:11:21;;;;;;;;;;;;;;;;;;6333627;28;19911;-81
2023/09/30 07:14:21;;;;;;;;;;;;;;;;;;6352301;28;20362;-81
2023/09/30 07:17:21;;;;;;;;;;;;;;;;;;6333411;28;19960;-84
2023/09/30 07:20:22;;;;;;;;;;;;;;;;;;6333721;28;19953;-84
2023/09/30 07:23:22;;;;;;;;;;;;;;;;;;6333233;28;19938;-84
2023/09/30 07:26:24;;;;;;;;;;;;;;;;;;6333110;28;19908;-82
2023/09/30 07:29:24;;;;;;;;;;;;;;;;;;6333615;28;19918;-83
2023/09/30 07:32:24;;;;;;;;;;;;;;;;;;6333044;28;19915;-84
2023/09/30 07:35:24;;;;;;;;;;;;;;;;;;6351079;28;19911;-84
2023/09/30 07:38:25;;;;;;;;;;;;;;;;;;6332974;28;19999;-83
2023/09/30 07:41:25;;;;;;;;;;;;;;;;;;6351053;28;19908;-84
2023/09/30 07:44:25;;;;;;;;;;;;;;;;;;6332943;28;20014;-84
2023/09/30 07:47:25;;;;;;;;;;;;;;;;;;6351568;28;19908;-83
2023/09/30 07:50:25;;;;;;;;;;;;;;;;;;6351485;28;19950;-83
2023/09/30 07:53:26;;;;;;;;;;;;;;;;;;6332756;28;19908;-83
2023/09/30 07:56:26;;;;;;;;;;;;;;;;;;6350883;28;19916;-83
2023/09/30 07:59:26;;;;;;;;;;;;;;;;;;6332540;28;20424;-85
2023/09/30 08:02:32;;;;;;;;;;;;;;;;;;6350625;28;19908;-84
2023/09/30 08:05:32;;;;;;;;;;;;;;;;;;6350532;28;19912;-84
2023/09/30 08:08:32;;;;;;;;;;;;;;;;;;6351261;28;19957;-84
2023/09/30 08:11:33;;;;;;;;;;;;;;;;;;6333170;28;19958;-84
2023/09/30 08:14:33;;;;;;;;;;;;;;;;;;6350691;28;19920;-87
2023/09/30 08:17:33;;;;;;;;;;;;;;;;;;6350680;28;19907;-87
2023/09/30 08:20:33;;;;;;;;;;;;;;;;;;6350976;28;19919;-83
2023/09/30 08:23:34;;;;;;;;;;;;;;;;;;6331876;28;20332;-84
2023/09/30 08:26:35;;;;;;;;;;;;;;;;;;6350515;28;20006;-86
2023/09/30 08:29:40;;;;;;;;;;;;;;;;;;6349989;28;20007;-85
2023/09/30 08:32:40;;;;;;;;;;;;;;;;;;6349291;28;19907;-85
2023/09/30 08:35:40;;;;;;;;;;;;;;;;;;6348924;28;19916;-84
2023/09/30 08:38:42;;;;;;;;;;;;;;;;;;6350067;28;19908;-84
2023/09/30 08:41:44;;;;;;;;;;;;;;;;;;6349584;28;19931;-86
2023/09/30 08:44:44;;;;;;;;;;;;;;;;;;6349539;28;20335;-87
2023/09/30 08:47:45;;;;;;;;;;;;;;;;;;6351083;28;19908;-87
2023/09/30 08:50:46;;;;;;;;;;;;;;;;;;6349756;28;19907;-88
2023/09/30 08:53:46;;;;;;;;;;;;;;;;;;6349848;28;19916;-84
2023/09/30 08:56:46;;;;;;;;;;;;;;;;;;6349056;28;19923;-85
2023/09/30 08:59:46;;;;;;;;;;;;;;;;;;6330699;28;19908;-83
2023/09/30 09:02:46;;;;;;;;;;;;;;;;;;6349271;28;19908;-84
2023/09/30 09:05:47;;;;;;;;;;;;;;;;;;6349801;28;20342;-87
2023/09/30 09:08:49;;;;;;;;;;;;;;;;;;6331637;28;19909;-86
2023/09/30 09:11:49;;;;;;;;;;;;;;;;;;6330816;28;19944;-86
2023/09/30 09:14:49;;;;;;;;;;;;;;;;;;6331278;28;19915;-87
2023/09/30 09:17:51;;;;;;;;;;;;;;;;;;6348787;28;20027;-85
2023/09/30 09:20:52;;;;;;;;;;;;;;;;;;6348992;28;19908;-86
2023/09/30 09:23:52;;;;;;;;;;;;;;;;;;6349366;28;19912;-86
2023/09/30 09:26:52;;;;;;;;;;;;;;;;;;6348645;28;19915;-86
2023/09/30 09:29:53;;;;;;;;;;;;;;;;;;6330736;28;19912;-85
2023/09/30 09:32:54;;;;;;;;;;;;;;;;;;6348408;28;20002;-84
2023/09/30 09:35:54;;;;;;;;;;;;;;;;;;6329833;28;20006;-84
2023/09/30 09:38:54;;;;;;;;;;;;;;;;;;6348500;28;20352;-84
2023/09/30 09:41:56;;;;;;;;;;;;;;;;;;6348839;28;19911;-84
2023/09/30 09:44:56;;;;;;;;;;;;;;;;;;6347850;28;20014;-84
2023/09/30 09:47:57;;;;;;;;;;;;;;;;;;6348157;28;19952;-83
2023/09/30 09:50:57;;;;;;;;;;;;;;;;;;6330459;28;19908;-85
2023/09/30 09:53:58;;;;;;;;;;;;;;;;;;6329739;28;19923;-84
2023/09/30 09:57:00;;;;;;;;;;;;;;;;;;6347143;28;20200;-84
2023/09/30 10:00:00;;;;;;;;;;;;;;;;;;6347879;28;19908;-84
2023/09/30 10:03:01;;;;;;;;;;;;;;;;;;6348061;28;19908;-84
2023/09/30 10:06:01;;;;;;;;;;;;;;;;;;6330125;28;20298;-84
2023/09/30 10:09:01;;;;;;;;;;;;;;;;;;6330502;28;19931;-85
2023/09/30 10:12:02;;;;;;;;;;;;;;;;;;6347888;28;19908;-86
2023/09/30 10:15:03;;;;;;;;;;;;;;;;;;6330925;28;20006;-84
2023/09/30 10:18:03;;;;;;;;;;;;;;;;;;6352139;28;19915;-95
2023/09/30 10:21:03;;;;;;;;;;;;;;;;;;6335406;28;19908;-95
2023/09/30 10:24:03;;;;;;;;;;;;;;;;;;6364770;28;19908;-95
2023/09/30 10:27:04;;;;;;;;;;;;;;;;;;6339878;28;19919;-93
2023/09/30 10:30:13;;;;;;;;;;;;;;;;;;6330022;28;20019;-94
2023/09/30 10:33:14;;;;;;;;;;;;;;;;;;6330165;28;19908;-92
2023/09/30 10:36:15;;;;;;;;;;;;;;;;;;6348062;28;20281;-93
2023/09/30 10:39:18;;;;;;;;;;;;;;;;;;6329756;28;19915;-93
2023/09/30 10:42:18;;;;;;;;;;;;;;;;;;6340202;28;19977;-93
2023/09/30 10:45:18;;;;;;;;;;;;;;;;;;6331286;28;19908;-95
2023/09/30 10:48:18;;;;;;;;;;;;;;;;;;6358094;28;19908;-96
2023/09/30 10:51:21;;;;;;;;;;;;;;;;;;6354441;28;19907;-95
2023/09/30 10:54:21;;;;;;;;;;;;;;;;;;6334295;28;19912;-94
2023/09/30 10:57:22;;;;;;;;;;;;;;;;;;6333882;28;19973;-94
2023/09/30 11:00:22;;;;;;;;;;;;;;;;;;6335205;28;20004;-93
2023/09/30 11:03:23;;;;;;;;;;;;;;;;;;6354035;28;19915;-95
2023/09/30 11:06:23;;;;;;;;;;;;;;;;;;6356530;28;19915;-96
2023/09/30 11:09:23;;;;;;;;;;;;;;;;;;6335436;28;19912;-94
2023/09/30 11:12:23;;;;;;;;;;;;;;;;;;6334827;28;20286;-96
2023/09/30 11:15:23;;;;;;;;;;;;;;;;;;6334838;28;19959;-95
2023/09/30 11:18:23;;;;;;;;;;;;;;;;;;6335064;28;20010;-96
2023/09/30 11:21:24;;;;;;;;;;;;;;;;;;6353635;28;19907;-96
2023/09/30 11:24:25;;;;;;;;;;;;;;;;;;6356703;28;19911;-96
2023/09/30 11:27:26;;;;;;;;;;;;;;;;;;6357681;28;19908;-96
2023/09/30 11:30:26;;;;;;;;;;;;;;;;;;6356228;28;19988;-96
2023/09/30 11:33:28;;;;;;;;;;;;;;;;;;6337280;28;20006;-96
2023/09/30 11:36:28;;;;;;;;;;;;;;;;;;6335952;28;20006;-95
2023/09/30 11:39:28;;;;;;;;;;;;;;;;;;6353411;28;20268;-96
2023/09/30 11:42:29;;;;;;;;;;;;;;;;;;6337737;28;19951;-96
2023/09/30 11:45:29;;;;;;;;;;;;;;;;;;6336257;28;19908;-95
2023/09/30 11:48:29;;;;;;;;;;;;;;;;;;6332892;28;20005;-85
2023/09/30 11:51:29;;;;;;;;;;;;;;;;;;6351017;28;19908;-88
2023/09/30 11:54:30;;;;;;;;;;;;;;;;;;6332465;28;19918;-85
2023/09/30 11:57:30;;;;;;;;;;;;;;;;;;6332803;28;19959;-87
2023/09/30 12:00:30;;;;;;;;;;;;;;;;;;6332612;28;19908;-85
2023/09/30 12:03:31;;;;;;;;;;;;;;;;;;6351110;28;19961;-85
2023/09/30 12:06:31;;;;;;;;;;;;;;;;;;6350955;28;19911;-85
2023/09/30 12:09:31;;;;;;;;;;;;;;;;;;6332015;28;19907;-86
2023/09/30 12:12:31;;;;;;;;;;;;;;;;;;6350935;28;19935;-86
2023/09/30 12:15:31;;;;;;;;;;;;;;;;;;6332040;28;20380;-85
2023/09/30 12:18:31;;;;;;;;;;;;;;;;;;6350808;28;20377;-85
2023/09/30 12:21:31;;;;;;;;;;;;;;;;;;6350743;28;19960;-85
2023/09/30 12:24:32;;;;;;;;;;;;;;;;;;6350868;28;20010;-85
2023/09/30 12:27:32;;;;;;;;;;;;;;;;;;6350017;28;19907;-85
2023/09/30 12:30:32;;;;;;;;;;;;;;;;;;6331867;28;19916;-85
2023/09/30 12:33:32;;;;;;;;;;;;;;;;;;6349753;28;19908;-85
2023/09/30 12:36:32;;;;;;;;;;;;;;;;;;6331406;28;20253;-85
2023/09/30 12:39:33;;;;;;;;;;;;;;;;;;6349927;28;19908;-84
2023/09/30 12:42:34;;;;;;;;;;;;;;;;;;6349928;28;19947;-85
2023/09/30 12:45:35;;;;;;;;;;;;;;;;;;6349923;28;19911;-84
2023/09/30 12:48:38;;;;;;;;;;;;;;;;;;6349594;28;20339;-84
2023/09/30 12:51:38;;;;;;;;;;;;;;;;;;6350106;28;19908;-84
2023/09/30 12:54:39;;;;;;;;;;;;;;;;;;6350052;28;19919;-83
2023/09/30 12:57:39;;;;;;;;;;;;;;;;;;6349629;28;19920;-92
2023/09/30 13:00:39;;;;;;;;;;;;;;;;;;6331292;28;19915;-91
2023/09/30 13:03:39;;;;;;;;;;;;;;;;;;6331430;28;19951;-91
2023/09/30 13:06:40;;;;;;;;;;;;;;;;;;6331142;28;19908;-91
2023/09/30 13:09:41;;;;;;;;;;;;;;;;;;6350103;28;19912;-91
2023/09/30 13:12:41;;;;;;;;;;;;;;;;;;6349362;28;19908;-91
2023/09/30 13:15:41;;;;;;;;;;;;;;;;;;6349214;28;19911;-91
2023/09/30 13:18:41;;;;;;;;;;;;;;;;;;6349110;28;20013;-91
2023/09/30 13:21:41;;;;;;;;;;;;;;;;;;6349130;28;20019;-91
2023/09/30 13:24:42;;;;;;;;;;;;;;;;;;6331505;28;19947;-91
2023/09/30 13:27:43;;;;;;;;;;;;;;;;;;6349274;28;19998;-90
2023/09/30 13:30:45;;;;;;;;;;;;;;;;;;6348989;28;20258;-91
2023/09/30 13:33:47;;;;;;;;;;;;;;;;;;6350065;28;19912;-91
2023/09/30 13:36:47;;;;;;;;;;;;;;;;;;6330707;28;20257;-90
2023/09/30 13:39:49;;;;;;;;;;;;;;;;;;6330667;28;19915;-91
2023/09/30 13:42:50;;;;;;;;;;;;;;;;;;6349113;28;19952;-92
2023/09/30 13:45:50;;;;;;;;;;;;;;;;;;6348749;28;20323;-91
2023/09/30 13:48:52;;;;;;;;;;;;;;;;;;6349406;28;19915;-91
2023/09/30 13:51:52;;;;;;;;;;;;;;;;;;6348875;28;19911;-91
2023/09/30 13:54:52;;;;;;;;;;;;;;;;;;6348873;28;19927;-91
2023/09/30 13:57:52;;;;;;;;;;;;;;;;;;6330142;28;19984;-92
2023/09/30 14:00:52;;;;;;;;;;;;;;;;;;6330100;28;19907;-91
2023/09/30 14:03:57;;;;;;;;;;;;;;;;;;6330310;28;19908;-91
2023/09/30 14:06:59;;;;;;;;;;;;;;;;;;6348958;28;19956;-83
2023/09/30 14:09:59;;;;;;;;;;;;;;;;;;6329877;28;19912;-84
2023/09/30 14:13:00;;;;;;;;;;;;;;;;;;6348333;28;19953;-84
2023/09/30 14:16:00;;;;;;;;;;;;;;;;;;6347999;28;19912;-83
2023/09/30 14:19:00;;;;;;;;;;;;;;;;;;6348016;28;19907;-84
2023/09/30 14:22:00;;;;;;;;;;;;;;;;;;6329719;28;19955;-84
2023/09/30 14:25:01;;;;;;;;;;;;;;;;;;6329724;28;19915;-83
2023/09/30 14:28:01;;;;;;;;;;;;;;;;;;6347732;28;20275;-84
2023/09/30 14:31:01;;;;;;;;;;;;;;;;;;6349831;28;19907;-83
2023/09/30 14:34:01;;;;;;;;;;;;;;;;;;6334605;28;19987;-83
2023/09/30 14:37:01;;;;;;;;;;;;;;;;;;6352744;28;19908;-83
2023/09/30 14:40:05;;;;;;;;;;;;;;;;;;6352796;28;19908;-83
2023/09/30 14:43:05;;;;;;;;;;;;;;;;;;6353018;28;19911;-83
2023/09/30 14:46:05;;;;;;;;;;;;;;;;;;6334675;28;19915;-84
2023/09/30 14:49:08;;;;;;;;;;;;;;;;;;6334269;28;19911;-84
2023/09/30 14:52:09;;;;;;;;;;;;;;;;;;6353110;28;19908;-83
2023/09/30 14:55:09;;;;;;;;;;;;;;;;;;6352528;28;19958;-83
2023/09/30 14:58:09;;;;;;;;;;;;;;;;;;6352228;28;19934;-84
2023/09/30 15:01:09;;;;;;;;;;;;;;;;;;6352171;28;20006;-83
2023/09/30 15:04:09;;;;;;;;;;;;;;;;;;6333942;28;20358;-83
2023/09/30 15:07:10;;;;;;;;;;;;;;;;;;6352279;28;19908;-83
2023/09/30 15:10:10;;;;;;;;;;;;;;;;;;6333843;28;19915;-83
2023/09/30 15:13:10;;;;;;;;;;;;;;;;;;6333754;28;19908;-83
2023/09/30 15:16:10;;;;;;;;;;;;;;;;;;6352335;28;19941;-83
2023/09/30 15:19:10;;;;;;;;;;;;;;;;;;6333640;28;19908;-83
2023/09/30 15:22:10;;;;;;;;;;;;;;;;;;6333574;28;20290;-83
2023/09/30 15:25:10;;;;;;;;;;;;;;;;;;6351695;28;20286;-82
2023/09/30 15:28:10;;;;;;;;;;;;;;;;;;6351425;28;19908;-80
2023/09/30 15:31:11;;;;;;;;;;;;;;;;;;6352094;28;19919;-80
2023/09/30 15:34:12;;;;;;;;;;;;;;;;;;6351483;28;19943;-83
2023/09/30 15:37:12;;;;;;;;;;;;;;;;;;6351421;28;20373;-79
2023/09/30 15:40:16;;;;;;;;;;;;;;;;;;6352039;28;19908;-80
2023/09/30 15:43:17;;;;;;;;;;;;;;;;;;6350955;28;19957;-80
2023/09/30 15:46:17;;;;;;;;;;;;;;;;;;6351259;28;19908;-80
2023/09/30 15:49:17;;;;;;;;;;;;;;;;;;6332908;28;19948;-81
2023/09/30 15:52:17;;;;;;;;;;;;;;;;;;6351853;28;20013;-80
2023/09/30 15:55:17;;;;;;;;;;;;;;;;;;6332601;28;19957;-82
2023/09/30 15:58:17;;;;;;;;;;;;;;;;;;6332650;28;19912;-81
2023/09/30 16:01:18;;;;;;;;;;;;;;;;;;6332579;28;19908;-81
2023/09/30 16:04:18;;;;;;;;;;;;;;;;;;6332597;28;19954;-81
2023/09/30 16:07:18;;;;;;;;;;;;;;;;;;6332503;28;20380;-81
2023/09/30 16:10:18;;;;;;;;;;;;;;;;;;6351356;28;19915;-81
2023/09/30 16:13:18;;;;;;;;;;;;;;;;;;6351193;28;19907;-80
2023/09/30 16:16:18;;;;;;;;;;;;;;;;;;6358202;28;19919;-80
2023/09/30 16:19:18;;;;;;;;;;;;;;;;;;6357943;28;19907;-80
2023/09/30 16:22:19;;;;;;;;;;;;;;;;;;6357705;28;19908;-80
2023/09/30 16:25:19;;;;;;;;;;;;;;;;;;6339490;28;19907;-80
2023/09/30 16:28:19;;;;;;;;;;;;;;;;;;6341773;28;19908;-87
2023/09/30 16:31:19;;;;;;;;;;;;;;;;;;6358993;28;19912;-87
2023/09/30 16:34:19;;;;;;;;;;;;;;;;;;6358857;28;20393;-87
2023/09/30 16:37:20;;;;;;;;;;;;;;;;;;6340251;28;19908;-88
2023/09/30 16:40:20;;;;;;;;;;;;;;;;;;6339140;28;19907;-88
2023/09/30 16:43:21;;;;;;;;;;;;;;;;;;6340659;28;19950;-87
2023/09/30 16:46:21;;;;;;;;;;;;;;;;;;6340100;28;19912;-88
2023/09/30 16:49:21;;;;;;;;;;;;;;;;;;6339314;28;19912;-88
2023/09/30 16:52:21;;;;;;;;;;;;;;;;;;6356337;28;20004;-88
2023/09/30 16:55:21;;;;;;;;;;;;;;;;;;6350685;28;20052;-88
2023/09/30 16:58:21;;;;;;;;;;;;;;;;;;6332192;28;19912;-88
2023/09/30 17:01:22;;;;;;;;;;;;;;;;;;6330970;28;20010;-89
2023/09/30 17:04:22;;;;;;;;;;;;;;;;;;6330790;28;19908;-88
2023/09/30 17:07:22;;;;;;;;;;;;;;;;;;6348760;28;19908;-88
2023/09/30 17:10:24;;;;;;;;;;;;;;;;;;6348820;28;19927;-88
2023/09/30 17:13:25;;;;;;;;;;;;;;;;;;6348606;28;19912;-88
2023/09/30 17:16:26;;;;;;;;;;;;;;;;;;6330292;28;20002;-88
2023/09/30 17:19:26;;;;;;;;;;;;;;;;;;6348279;28;20277;-87
2023/09/30 17:22:27;;;;;;;;;;;;;;;;;;6329816;28;19915;-87
2023/09/30 17:25:27;;;;;;;;;;;;;;;;;;6348928;28;19957;-87
2023/09/30 17:28:27;;;;;;;;;;;;;;;;;;6348087;28;19907;-81
2023/09/30 17:31:28;;;;;;;;;;;;;;;;;;6348150;28;20007;-81
2023/09/30 17:34:28;;;;;;;;;;;;;;;;;;6348181;28;19916;-81
2023/09/30 17:37:29;;;;;;;;;;;;;;;;;;6330221;28;19907;-81
2023/09/30 17:40:29;;;;;;;;;;;;;;;;;;6329798;28;20305;-81
2023/09/30 17:43:29;;;;;;;;;;;;;;;;;;6348327;28;20372;-80
2023/09/30 17:46:29;;;;;;;;;;;;;;;;;;6348803;28;19908;-80
2023/09/30 17:49:29;;;;;;;;;;;;;;;;;;6329741;28;19908;-80
2023/09/30 17:52:29;;;;;;;;;;;;;;;;;;6329522;28;19942;-80
2023/09/30 17:55:30;;;;;;;;;;;;;;;;;;6328960;28;19926;-80
2023/09/30 17:58:30;;;;;;;;;;;;;;;;;;6347667;28;19908;-80
2023/09/30 18:01:30;;;;;;;;;;;;;;;;;;6347645;28;20387;-80
2023/09/30 18:04:30;;;;;;;;;;;;;;;;;;6347176;28;19908;-80
2023/09/30 18:07:30;;;;;;;;;;;;;;;;;;6328956;28;19914;-80
2023/09/30 18:10:30;;;;;;;;;;;;;;;;;;6329646;28;20002;-81
2023/09/30 18:13:31;;;;;;;;;;;;;;;;;;6329384;28;19915;-81
2023/09/30 18:16:31;;;;;;;;;;;;;;;;;;6347591;28;19912;-80
2023/09/30 18:19:31;;;;;;;;;;;;;;;;;;6347899;28;19908;-80
2023/09/30 18:22:34;;;;;;;;;;;;;;;;;;6348426;28;19908;-80
2023/09/30 18:25:35;;;;;;;;;;;;;;;;;;6347052;28;19908;-80
2023/09/30 18:28:36;;;;;;;;;;;;;;;;;;6347281;28;19955;-80
2023/09/30 18:31:36;;;;;;;;;;;;;;;;;;6347324;28;20340;-80
2023/09/30 18:34:36;;;;;;;;;;;;;;;;;;6347321;28;19965;-81
2023/09/30 18:37:36;;;;;;;;;;;;;;;;;;6347191;28;19908;-87
2023/09/30 18:40:37;;;;;;;;;;;;;;;;;;6347417;28;19908;-87
2023/09/30 18:43:37;;;;;;;;;;;;;;;;;;6329475;28;20377;-87
2023/09/30 18:46:37;;;;;;;;;;;;;;;;;;6347507;28;19964;-87
2023/09/30 18:49:37;;;;;;;;;;;;;;;;;;6347374;28;19911;-87
2023/09/30 18:52:38;;;;;;;;;;;;;;;;;;6347352;28;19912;-89
2023/09/30 18:55:38;;;;;;;;;;;;;;;;;;6329400;28;19923;-87
2023/09/30 18:58:38;;;;;;;;;;;;;;;;;;6347059;28;19919;-87
2023/09/30 19:01:38;;;;;;;;;;;;;;;;;;6347167;28;19912;-87
2023/09/30 19:04:38;;;;;;;;;;;;;;;;;;6329135;28;19919;-87
2023/09/30 19:07:39;;;;;;;;;;;;;;;;;;6347433;28;19908;-87
2023/09/30 19:10:41;;;;;;;;;;;;;;;;;;6347099;28;19907;-87
2023/09/30 19:13:41;;;;;;;;;;;;;;;;;;6347196;28;19908;-87
2023/09/30 19:16:42;;;;;;;;;;;;;;;;;;6328580;28;19908;-88
2023/09/30 19:19:44;;;;;;;;;;;;;;;;;;6350690;28;19908;-87
2023/09/30 19:22:44;;;;;;;;;;;;;;;;;;6352169;28;19996;-88
2023/09/30 19:25:44;;;;;;;;;;;;;;;;;;6333120;28;19912;-88
2023/09/30 19:28:44;;;;;;;;;;;;;;;;;;6333048;28;19960;-88
2023/09/30 19:31:44;;;;;;;;;;;;;;;;;;6333268;28;19908;-89
2023/09/30 19:34:45;;;;;;;;;;;;;;;;;;6351728;28;20357;-88
2023/09/30 19:37:45;;;;;;;;;;;;;;;;;;6351501;28;19965;-88
2023/09/30 19:40:45;;;;;;;;;;;;;;;;;;6333253;28;19919;-88
2023/09/30 19:43:46;;;;;;;;;;;;;;;;;;6351579;28;19919;-88
2023/09/30 19:46:46;;;;;;;;;;;;;;;;;;6332834;28;19908;-82
2023/09/30 19:49:47;;;;;;;;;;;;;;;;;;6350360;28;20289;-81
2023/09/30 19:52:47;;;;;;;;;;;;;;;;;;6332446;28;19958;-81
2023/09/30 19:55:51;;;;;;;;;;;;;;;;;;6332031;28;19919;-82
2023/09/30 19:58:51;;;;;;;;;;;;;;;;;;6351276;28;19914;-81
2023/09/30 20:01:52;;;;;;;;;;;;;;;;;;6331613;28;20293;-81
2023/09/30 20:04:52;;;;;;;;;;;;;;;;;;6350298;28;19915;-81
2023/09/30 20:07:53;;;;;;;;;;;;;;;;;;6332091;28;19908;-81
2023/09/30 20:10:53;;;;;;;;;;;;;;;;;;6350174;28;20379;-82
2023/09/30 20:13:53;;;;;;;;;;;;;;;;;;6331789;28;19960;-82
2023/09/30 20:16:53;;;;;;;;;;;;;;;;;;6349958;28;19908;-81
2023/09/30 20:19:53;;;;;;;;;;;;;;;;;;6331769;28;19919;-82
2023/09/30 20:22:53;;;;;;;;;;;;;;;;;;6349934;28;19915;-80
2023/09/30 20:25:53;;;;;;;;;;;;;;;;;;6348942;28;19908;-80
2023/09/30 20:28:55;;;;;;;;;;;;;;;;;;6331537;28;19922;-80
2023/09/30 20:31:55;;;;;;;;;;;;;;;;;;6349540;28;19912;-81